Time;durP1;ratioP1;P1;durP2;ratioP2;P2;SDS_P1;SDS_P2;PMS_P1;PMS_P2;Temp;Humidity;BMP_temperature;BMP_pressure;BME280_temperature;BME280_humidity;BME280_pressure;Samples;Min_cycle;Max_cycle;Signal;HPM_P1;HPM_P2
2023/12/05 00:01:29;;;;;;;27.90;7.88;;;;;;;-0.92;100.00;97959.91;5078841;28;20027;-71
2023/12/05 00:03:55;;;;;;;16.88;8.02;;;;;;;-0.85;100.00;97986.97;5095032;28;20475;-71
2023/12/05 00:06:20;;;;;;;16.20;7.30;;;;;;;-0.90;100.00;97987.03;5081980;28;20034;-71
2023/12/05 00:08:46;;;;;;;17.90;8.57;;;;;;;-0.99;100.00;97974.00;5062389;28;20107;-73
2023/12/05 00:11:12;;;;;;;19.92;7.93;;;;;;;-1.08;100.00;97946.06;5079055;28;20384;-71
2023/12/05 00:13:38;;;;;;;19.90;8.23;;;;;;;-0.88;100.00;97971.25;5078856;28;20479;-72
2023/12/05 00:16:04;;;;;;;20.38;8.43;;;;;;;-0.99;100.00;97952.13;5112540;28;20030;-72
2023/12/05 00:18:29;;;;;;;18.98;9.23;;;;;;;-1.06;100.00;97946.06;5095889;28;20475;-72
2023/12/05 00:20:55;;;;;;;20.77;9.05;;;;;;;-0.99;100.00;97967.88;5095742;28;20035;-72
2023/12/05 00:23:21;;;;;;;18.73;8.57;;;;;;;-0.91;100.00;97976.53;5095686;28;20023;-71
2023/12/05 00:25:46;;;;;;;20.02;9.23;;;;;;;-0.94;100.00;97959.06;5078476;28;20016;-72
2023/12/05 00:28:12;;;;;;;22.58;10.15;;;;;;;-0.95;100.00;97973.06;5078683;28;20494;-72
2023/12/05 00:30:37;;;;;;;20.88;8.50;;;;;;;-1.18;100.00;97939.19;5078661;28;20024;-70
2023/12/05 00:33:03;;;;;;;16.88;8.05;;;;;;;-1.10;100.00;97946.97;5113711;28;20567;-71
2023/12/05 00:35:29;;;;;;;20.35;8.70;;;;;;;-1.14;100.00;97951.38;5078743;28;20052;-71
2023/12/05 00:37:54;;;;;;;19.25;8.50;;;;;;;-1.20;100.00;97948.81;5095183;28;20403;-70
2023/12/05 00:40:20;;;;;;;18.30;7.97;;;;;;;-1.26;100.00;97948.84;5095432;28;20039;-72
2023/12/05 00:42:46;;;;;;;17.75;8.20;;;;;;;-1.19;100.00;97963.66;5095259;28;20028;-71
2023/12/05 00:45:13;;;;;;;18.73;9.10;;;;;;;-1.11;100.00;97966.25;5075047;28;20467;-71
2023/12/05 00:47:42;;;;;;;17.83;8.73;;;;;;;-1.24;100.00;97973.34;5075159;28;20464;-72
2023/12/05 00:50:08;;;;;;;25.00;9.73;;;;;;;-1.24;100.00;97970.72;5074723;28;20031;-71
2023/12/05 00:52:34;;;;;;;20.10;9.25;;;;;;;-1.19;100.00;97992.53;5075070;28;20031;-72
2023/12/05 00:55:00;;;;;;;19.83;9.48;;;;;;;-1.29;100.00;97974.28;5074648;28;20035;-71
2023/12/05 00:57:25;;;;;;;15.65;8.48;;;;;;;-1.20;100.00;97996.03;5074626;28;20042;-72
2023/12/05 00:59:51;;;;;;;19.30;8.93;;;;;;;-1.33;100.00;97968.19;5091496;28;20028;-72
2023/12/05 01:02:17;;;;;;;18.10;7.60;;;;;;;-1.31;100.00;97992.63;5111909;28;20497;-71
2023/12/05 01:04:43;;;;;;;15.32;7.18;;;;;;;-1.42;100.00;97988.38;5059520;28;20094;-70
2023/12/05 01:07:12;;;;;;;16.88;7.30;;;;;;;-1.42;100.00;97999.75;5073233;28;20469;-71
2023/12/05 01:09:39;;;;;;;13.75;6.80;;;;;;;-1.52;100.00;97986.69;5092518;28;20469;-70
2023/12/05 01:12:05;;;;;;;14.65;6.90;;;;;;;-1.66;100.00;97992.91;5074131;28;20067;-72
2023/12/05 01:14:31;;;;;;;13.55;6.47;;;;;;;-1.69;100.00;97978.94;5073778;28;20027;-70
2023/12/05 01:16:57;;;;;;;15.80;6.90;;;;;;;-1.63;100.00;97985.00;5074325;28;20093;-71
2023/12/05 01:19:22;;;;;;;15.05;7.40;;;;;;;-1.86;100.00;97950.22;5057621;28;20433;-71
2023/12/05 01:21:48;;;;;;;13.13;6.32;;;;;;;-1.61;100.00;97987.63;5074391;28;20024;-71
2023/12/05 01:24:13;;;;;;;17.33;6.93;;;;;;;-1.56;100.00;97980.59;5057248;28;20047;-71
2023/12/05 01:26:39;;;;;;;23.05;10.23;;;;;;;-1.48;100.00;97976.19;5074184;28;20024;-71
2023/12/05 01:29:05;;;;;;;20.38;8.88;;;;;;;-1.57;100.00;97976.25;5092295;28;20115;-72
2023/12/05 01:31:31;;;;;;;23.35;9.02;;;;;;;-1.58;100.00;97956.16;5093935;28;20486;-71
2023/12/05 01:33:56;;;;;;;16.67;8.02;;;;;;;-1.48;100.00;97967.44;5094322;28;20447;-71
2023/12/05 01:36:22;;;;;;;16.30;7.85;;;;;;;-1.37;100.00;97957.72;5093933;28;20402;-71
2023/12/05 01:38:48;;;;;;;18.60;7.88;;;;;;;-1.48;100.00;97938.59;5077301;28;20107;-71
2023/12/05 01:41:14;;;;;;;21.38;8.10;;;;;;;-1.41;100.00;97942.88;5076758;28;20035;-71
2023/12/05 01:43:39;;;;;;;14.15;6.70;;;;;;;-1.47;100.00;97937.69;5094580;28;20377;-72
2023/12/05 01:46:06;;;;;;;18.45;8.05;;;;;;;-1.40;100.00;97942.88;5077137;28;20047;-71
2023/12/05 01:48:33;;;;;;;16.67;7.22;;;;;;;-1.46;100.00;97924.56;5076891;28;20019;-72
2023/12/05 01:51:01;;;;;;;16.90;8.23;;;;;;;-1.36;100.00;97928.00;5078008;28;20048;-72
2023/12/05 01:53:27;;;;;;;28.77;9.60;;;;;;;-1.44;100.00;97916.69;5073298;28;20028;-71
2023/12/05 01:55:53;;;;;;;17.20;7.38;;;;;;;-1.41;100.00;97914.03;5088704;28;20023;-72
2023/12/05 01:58:19;;;;;;;16.70;7.53;;;;;;;-1.47;100.00;97916.69;5076604;28;20161;-71
2023/12/05 02:00:45;;;;;;;14.63;6.80;;;;;;;-1.53;100.00;97909.75;5093845;28;20110;-72
2023/12/05 02:03:10;;;;;;;18.13;7.45;;;;;;;-1.60;100.00;97904.59;5076572;28;20076;-72
2023/12/05 02:05:36;;;;;;;14.27;7.32;;;;;;;-1.68;100.00;97902.91;5076711;28;20114;-72
2023/12/05 02:08:02;;;;;;;14.40;6.63;;;;;;;-1.58;100.00;97908.06;5093722;28;20023;-71
2023/12/05 02:10:28;;;;;;;15.40;6.93;;;;;;;-1.57;100.00;97915.06;5076130;28;20490;-73
2023/12/05 02:12:53;;;;;;;15.50;6.65;;;;;;;-1.58;100.00;97903.69;5093749;28;20031;-71
2023/12/05 02:15:19;;;;;;;16.50;7.97;;;;;;;-1.64;100.00;97890.66;5076320;28;20098;-71
2023/12/05 02:18:05;;;;;;;13.73;6.68;;;;;;;-1.61;100.00;97887.13;5072761;28;20032;-72
2023/12/05 02:20:46;;;;;;;11.05;6.18;;;;;;;-1.63;100.00;97890.63;5073179;28;20410;-72
2023/12/05 02:23:47;;;;;;;20.00;7.82;;;;;;;-1.66;100.00;97884.53;5072939;28;20395;-72
2023/12/05 02:26:38;;;;;;;19.25;7.88;;;;;;;-1.66;100.00;97901.13;5076271;28;20054;-71
2023/12/05 02:29:04;;;;;;;21.27;9.00;;;;;;;-1.71;100.00;97865.34;5092963;28;20098;-71
2023/12/05 02:31:29;;;;;;;20.55;9.65;;;;;;;-1.76;100.00;97860.16;5076118;28;20123;-72
2023/12/05 02:33:55;;;;;;;28.48;10.13;;;;;;;-1.59;100.00;97885.34;5075874;28;20483;-71
2023/12/05 02:36:27;;;;;;;20.15;8.88;;;;;;;-1.63;100.00;97860.91;5093078;28;20108;-72
2023/12/05 02:39:01;;;;;;;21.08;9.88;;;;;;;-1.41;100.00;97896.53;5092873;28;20026;-72
2023/12/05 02:41:30;;;;;;;22.70;9.45;;;;;;;-1.52;100.00;97871.31;5109757;28;20040;-72
2023/12/05 02:44:30;;;;;;;24.58;10.20;;;;;;;-1.34;100.00;97892.09;5092738;28;20033;-72
2023/12/05 02:46:56;;;;;;;21.15;9.68;;;;;;;-1.46;100.00;97872.13;5089830;28;20410;-72
2023/12/05 02:49:22;;;;;;;22.42;8.75;;;;;;;-1.48;100.00;97879.16;5092799;28;20502;-71
2023/12/05 02:51:48;;;;;;;24.17;10.55;;;;;;;-1.45;100.00;97873.00;5075949;28;20044;-72
2023/12/05 02:54:13;;;;;;;18.50;8.88;;;;;;;-1.50;100.00;97859.03;5092646;28;20026;-72
2023/12/05 02:56:39;;;;;;;22.45;10.10;;;;;;;-1.54;100.00;97868.72;5075909;28;20125;-72
2023/12/05 02:59:05;;;;;;;21.65;9.27;;;;;;;-1.50;100.00;97865.16;5087690;28;20043;-73
2023/12/05 03:01:38;;;;;;;22.75;9.75;;;;;;;-1.63;100.00;97839.09;5092712;28;20027;-72
2023/12/05 03:04:03;;;;;;;22.27;9.70;;;;;;;-1.55;100.00;97850.34;5066762;28;20115;-72
2023/12/05 03:06:29;;;;;;;22.73;10.25;;;;;;;-1.55;100.00;97858.22;5055611;28;20463;-71
2023/12/05 03:08:56;;;;;;;26.15;10.10;;;;;;;-1.47;100.00;97864.25;5051603;28;20023;-72
2023/12/05 03:11:21;;;;;;;27.10;8.93;;;;;;;-1.65;100.00;97855.69;5072056;28;20487;-72
2023/12/05 03:13:47;;;;;;;20.05;8.65;;;;;;;-1.53;100.00;97866.94;5072349;28;20035;-71
2023/12/05 03:16:13;;;;;;;17.40;8.55;;;;;;;-1.66;100.00;97880.16;5092119;28;20081;-71
2023/12/05 03:18:39;;;;;;;17.40;8.02;;;;;;;-1.75;100.00;97859.25;5092263;28;20487;-71
2023/12/05 03:21:04;;;;;;;20.02;9.27;;;;;;;-1.79;100.00;97868.06;5110488;28;20103;-72
2023/12/05 03:23:30;;;;;;;18.67;8.05;;;;;;;-1.93;100.00;97861.16;5092385;28;20113;-71
2023/12/05 03:25:56;;;;;;;22.88;9.95;;;;;;;-2.09;100.00;97817.66;5110819;28;20020;-72
2023/12/05 03:28:21;;;;;;;33.83;12.00;;;;;;;-2.03;100.00;97830.69;5092205;28;20028;-72
2023/12/05 03:30:47;;;;;;;27.30;9.48;;;;;;;-1.91;100.00;97835.84;5110609;28;20031;-71
2023/12/05 03:33:13;;;;;;;23.35;8.55;;;;;;;-1.91;100.00;97823.59;5092216;28;20026;-71
2023/12/05 03:35:38;;;;;;;21.70;9.43;;;;;;;-1.96;100.00;97835.84;5058419;28;20023;-72
2023/12/05 03:38:04;;;;;;;22.13;9.50;;;;;;;-2.11;100.00;97828.13;5056971;28;20507;-73
2023/12/05 03:40:30;;;;;;;24.63;11.43;;;;;;;-2.17;100.00;97828.19;5075858;28;20059;-73
2023/12/05 03:42:55;;;;;;;24.55;11.45;;;;;;;-2.08;100.00;97817.63;5091364;28;20026;-72
2023/12/05 03:45:21;;;;;;;24.02;10.13;;;;;;;-2.09;100.00;97804.56;5077457;28;20377;-72
2023/12/05 03:47:47;;;;;;;25.30;9.70;;;;;;;-2.23;100.00;97822.97;5092942;28;20028;-71
2023/12/05 03:50:12;;;;;;;21.10;10.40;;;;;;;-2.12;100.00;97818.50;5058976;28;20067;-72
2023/12/05 03:52:38;;;;;;;22.63;10.35;;;;;;;-2.10;100.00;97829.88;5075828;28;20028;-72
2023/12/05 03:55:04;;;;;;;27.35;10.82;;;;;;;-2.11;100.00;97811.53;5059103;28;20519;-71
2023/12/05 03:57:30;;;;;;;18.80;9.00;;;;;;;-2.04;100.00;97824.59;5092477;28;20028;-72
2023/12/05 03:59:55;;;;;;;21.15;8.80;;;;;;;-2.21;100.00;97823.84;5069234;28;20023;-71
2023/12/05 04:02:21;;;;;;;19.55;8.32;;;;;;;-2.32;100.00;97799.47;5090456;28;20096;-71
2023/12/05 04:04:46;;;;;;;15.65;7.45;;;;;;;-2.21;100.00;97829.94;5075810;28;20031;-73
2023/12/05 04:07:12;;;;;;;14.43;7.63;;;;;;;-2.21;100.00;97834.31;5075519;28;20031;-72
2023/12/05 04:09:38;;;;;;;18.55;8.57;;;;;;;-2.28;100.00;97832.63;5071448;28;20514;-72
2023/12/05 04:12:04;;;;;;;22.00;8.38;;;;;;;-2.31;100.00;97836.13;5075484;28;20036;-72
2023/12/05 04:14:29;;;;;;;24.30;9.43;;;;;;;-2.24;100.00;97856.16;5075290;28;20023;-73
2023/12/05 04:16:55;;;;;;;17.90;8.70;;;;;;;-2.27;100.00;97839.59;5075526;28;20031;-72
2023/12/05 04:19:21;;;;;;;21.23;8.75;;;;;;;-2.23;100.00;97849.19;5079298;28;20032;-73
2023/12/05 04:21:46;;;;;;;19.25;8.65;;;;;;;-2.29;100.00;97843.97;5092348;28;20110;-72
2023/12/05 04:24:12;;;;;;;19.50;8.52;;;;;;;-2.29;100.00;97846.59;5095696;28;20386;-73
2023/12/05 04:26:38;;;;;;;18.30;8.70;;;;;;;-2.25;100.00;97841.34;5058281;28;20028;-71
2023/12/05 04:29:04;;;;;;;20.48;8.80;;;;;;;-2.17;100.00;97849.13;5081625;28;20097;-71
2023/12/05 04:31:30;;;;;;;19.08;9.23;;;;;;;-2.07;100.00;97858.66;5064166;28;20025;-73
2023/12/05 04:33:56;;;;;;;21.08;9.38;;;;;;;-2.24;100.00;97829.97;5081648;28;20028;-71
2023/12/05 04:36:24;;;;;;;18.38;8.75;;;;;;;-1.97;100.00;97852.44;5091942;28;20035;-73
2023/12/05 04:38:50;;;;;;;21.77;10.25;;;;;;;-1.94;100.00;97836.75;5095770;28;20019;-79
2023/12/05 04:41:15;;;;;;;19.02;8.82;;;;;;;-1.96;100.00;97838.47;5101939;28;20157;-80
2023/12/05 04:43:41;;;;;;;17.27;7.78;;;;;;;-1.94;100.00;97836.75;5087972;28;20031;-76
2023/12/05 04:46:07;;;;;;;23.40;9.48;;;;;;;-1.89;100.00;97837.56;5094079;28;20024;-76
2023/12/05 04:48:32;;;;;;;22.50;9.43;;;;;;;-1.92;100.00;97831.47;5090925;28;20026;-75
2023/12/05 04:50:58;;;;;;;20.17;9.25;;;;;;;-1.89;100.00;97821.84;5076448;28;20075;-75
2023/12/05 04:53:24;;;;;;;22.98;9.85;;;;;;;-1.87;100.00;97834.91;5069178;28;20094;-75
2023/12/05 04:55:49;;;;;;;16.08;9.20;;;;;;;-1.83;100.00;97828.75;5071906;28;20055;-72
2023/12/05 04:58:15;;;;;;;25.40;10.25;;;;;;;-1.96;100.00;97838.47;5092721;28;20028;-73
2023/12/05 05:00:41;;;;;;;24.52;10.95;;;;;;;-1.78;100.00;97847.94;5074661;28;20507;-72
2023/12/05 05:03:07;;;;;;;18.33;8.65;;;;;;;-1.83;100.00;97845.38;5057661;28;20026;-73
2023/12/05 05:05:33;;;;;;;25.50;11.13;;;;;;;-1.83;100.00;97845.38;5091272;28;20028;-73
2023/12/05 05:08:00;;;;;;;31.23;11.27;;;;;;;-1.77;100.00;97845.31;5074413;28;20031;-72
2023/12/05 05:10:25;;;;;;;21.98;10.73;;;;;;;-1.73;100.00;97831.31;5074202;28;20028;-72
2023/12/05 05:12:51;;;;;;;19.63;9.40;;;;;;;-1.79;100.00;97852.34;5074313;28;20051;-70
2023/12/05 05:15:16;;;;;;;27.05;10.63;;;;;;;-1.75;100.00;97833.06;5057640;28;20542;-75
2023/12/05 05:17:42;;;;;;;25.65;12.35;;;;;;;-1.73;100.00;97843.53;5074421;28;20384;-71
2023/12/05 05:20:08;;;;;;;29.92;13.73;;;;;;;-1.65;100.00;97847.81;5093434;28;20038;-72
2023/12/05 05:22:34;;;;;;;112.07;47.67;;;;;;;-1.58;100.00;97839.91;5089486;28;20016;-71
2023/12/05 05:24:59;;;;;;;92.43;38.22;;;;;;;-1.53;100.00;97833.72;5091937;28;20518;-70
2023/12/05 05:27:25;;;;;;;28.77;14.25;;;;;;;-1.46;100.00;97847.63;5078844;28;20112;-73
2023/12/05 05:29:51;;;;;;;118.35;51.30;;;;;;;-1.36;100.00;97833.56;5079011;28;20487;-73
2023/12/05 05:32:16;;;;;;;36.55;17.85;;;;;;;-1.37;100.00;97844.91;5108891;28;20028;-73
2023/12/05 05:34:42;;;;;;;41.65;17.80;;;;;;;-1.27;100.00;97836.06;5071174;28;20027;-72
2023/12/05 05:37:07;;;;;;;33.78;15.65;;;;;;;-1.29;100.00;97830.00;5077740;28;20104;-73
2023/12/05 05:39:33;;;;;;;39.42;16.50;;;;;;;-1.19;100.00;97827.22;5099172;28;20500;-73
2023/12/05 05:41:59;;;;;;;33.20;14.40;;;;;;;-1.08;100.00;97819.25;5089786;28;20031;-74
2023/12/05 05:44:24;;;;;;;47.13;20.95;;;;;;;-1.17;100.00;97832.47;5090943;28;20507;-71
2023/12/05 05:46:50;;;;;;;33.45;14.25;;;;;;;-1.24;100.00;97831.66;5089934;28;20059;-72
2023/12/05 05:49:16;;;;;;;62.05;25.40;;;;;;;-1.22;100.00;97831.63;5089238;28;20032;-72
2023/12/05 05:51:41;;;;;;;32.90;13.77;;;;;;;-1.23;100.00;97822.06;5056821;28;20059;-73
2023/12/05 05:54:07;;;;;;;33.80;14.50;;;;;;;-1.09;100.00;97825.38;5090159;28;20088;-72
2023/12/05 05:56:39;;;;;;;35.33;15.77;;;;;;;-0.97;100.00;97829.59;5093989;28;20469;-72
2023/12/05 05:59:05;;;;;;;;;;;;;;;-0.94;100.00;97825.19;5085913;28;20035;-72
2023/12/05 06:01:30;;;;;;;33.55;14.32;;;;;;;-1.04;100.00;97802.56;5073143;28;20435;-73
2023/12/05 06:03:56;;;;;;;27.23;13.48;;;;;;;-0.98;100.00;97802.47;5081678;28;20024;-72
2023/12/05 06:06:21;;;;;;;31.42;14.77;;;;;;;-0.95;100.00;97797.19;5108402;28;20031;-71
2023/12/05 06:08:47;;;;;;;39.70;15.60;;;;;;;-0.82;100.00;97806.66;5066301;28;20099;-73
2023/12/05 06:11:13;;;;;;;32.35;14.52;;;;;;;-0.76;100.00;97789.94;5059227;28;20035;-73
2023/12/05 06:13:38;;;;;;;32.22;17.67;;;;;;;-0.77;100.00;97791.69;5081753;28;20039;-73
2023/12/05 06:16:05;;;;;;;26.23;12.25;;;;;;;-0.78;100.00;97779.47;5063962;28;20027;-72
2023/12/05 06:18:30;;;;;;;21.67;10.07;;;;;;;-0.70;100.00;97781.97;5091997;28;20840;-72
2023/12/05 06:20:57;;;;;;;21.00;9.10;;;;;;;-0.51;100.00;97782.59;5092281;28;20070;-72
2023/12/05 06:23:23;;;;;;;31.75;14.10;;;;;;;-0.49;100.00;97765.06;5089253;28;20125;-73
2023/12/05 06:25:49;;;;;;;93.30;30.15;;;;;;;-0.56;100.00;97746.78;5073210;28;20061;-72
2023/12/05 06:28:14;;;;;;;28.27;12.18;;;;;;;-0.42;100.00;97741.28;5058685;28;20475;-73
2023/12/05 06:30:40;;;;;;;26.98;11.35;;;;;;;-0.33;100.00;97741.13;5074637;28;20028;-72
2023/12/05 06:33:05;;;;;;;28.60;10.50;;;;;;;-0.21;100.00;97737.44;5072799;28;20483;-73
2023/12/05 06:35:31;;;;;;;20.02;9.75;;;;;;;-0.25;100.00;97726.13;5073308;28;20032;-72
2023/12/05 06:37:57;;;;;;;26.13;12.13;;;;;;;-0.22;100.00;97722.59;5072925;28;20459;-72
2023/12/05 06:40:22;;;;;;;27.05;12.38;;;;;;;-0.11;100.00;97716.25;5098771;28;20106;-73
2023/12/05 06:42:48;;;;;;;31.38;13.88;;;;;;;0.01;100.00;97709.88;5084689;28;20032;-73
2023/12/05 06:45:15;;;;;;;27.55;12.00;;;;;;;0.06;100.00;97702.81;5093176;28;20402;-72
2023/12/05 06:47:40;;;;;;;24.23;11.98;;;;;;;0.09;100.00;97715.91;5081302;28;20459;-71
2023/12/05 06:50:10;;;;;;;38.13;13.20;;;;;;;0.11;100.00;97692.19;5099314;28;20173;-72
2023/12/05 06:52:40;;;;;;;29.77;13.38;;;;;;;0.28;100.00;97693.59;5075609;28;20118;-72
2023/12/05 06:55:06;;;;;;;41.25;17.05;;;;;;;0.34;100.00;97713.69;5061166;28;20077;-73
2023/12/05 06:57:32;;;;;;;42.97;18.63;;;;;;;0.36;100.00;97723.28;5080580;28;20032;-72
2023/12/05 06:59:58;;;;;;;48.25;20.55;;;;;;;0.49;100.00;97716.84;5072631;28;20032;-72
2023/12/05 07:02:23;;;;;;;45.10;19.42;;;;;;;0.74;100.00;97735.66;5081324;28;20031;-72
2023/12/05 07:04:50;;;;;;;29.42;13.93;;;;;;;0.63;100.00;97728.88;5083899;28;20027;-72
2023/12/05 07:07:16;;;;;;;27.00;11.90;;;;;;;0.44;100.00;97723.97;5085213;28;20024;-73
2023/12/05 07:09:41;;;;;;;22.58;10.13;;;;;;;0.18;100.00;97731.50;5091788;28;20031;-71
2023/12/05 07:12:07;;;;;;;16.05;8.38;;;;;;;0.25;100.00;97745.38;5077179;28;20028;-72
2023/12/05 07:14:36;;;;;;;21.25;9.43;;;;;;;0.21;100.00;97714.81;5100644;28;20028;-72
2023/12/05 07:17:02;;;;;;;29.75;11.55;;;;;;;0.26;100.00;97726.09;5078708;28;20073;-72
2023/12/05 07:19:27;;;;;;;36.95;16.25;;;;;;;0.38;100.00;97732.00;5055562;28;20068;-72
2023/12/05 07:21:53;;;;;;;30.73;12.40;;;;;;;0.53;100.00;97721.16;5084677;28;20024;-72
2023/12/05 07:24:19;;;;;;;21.73;9.68;;;;;;;0.43;100.00;97729.28;5094716;28;20488;-71
2023/12/05 07:26:46;;;;;;;26.58;11.80;;;;;;;0.48;100.00;97701.97;5089030;28;20116;-73
2023/12/05 07:29:12;;;;;;;29.77;10.77;;;;;;;0.47;100.00;97694.97;5096604;28;20081;-72
2023/12/05 07:31:38;;;;;;;25.50;10.80;;;;;;;0.51;100.00;97685.25;5092389;28;20422;-73
2023/12/05 07:34:03;;;;;;;21.15;9.38;;;;;;;0.61;100.00;97692.09;5062263;28;20024;-73
2023/12/05 07:36:29;;;;;;;52.15;19.83;;;;;;;0.74;100.00;97675.13;5089273;28;20376;-72
2023/12/05 07:38:54;;;;;;;34.47;14.48;;;;;;;0.87;100.00;97686.25;5080695;28;20123;-73
2023/12/05 07:41:22;;;;;;;51.72;19.15;;;;;;;0.80;100.00;97703.09;5078995;28;20167;-71
2023/12/05 07:43:49;;;;;;;29.70;13.77;;;;;;;0.79;100.00;97710.13;5089834;28;20028;-71
2023/12/05 07:46:15;;;;;;;39.13;14.63;;;;;;;0.91;100.00;97699.34;5055545;28;20032;-73
2023/12/05 07:48:41;;;;;;;47.65;24.17;;;;;;;0.94;100.00;97688.72;5090174;28;20538;-72
2023/12/05 07:51:07;;;;;;;50.78;23.95;;;;;;;0.77;100.00;97688.22;5078905;28;20115;-72
2023/12/05 07:53:33;;;;;;;46.78;19.75;;;;;;;1.09;100.00;97690.16;5062816;28;20031;-73
2023/12/05 07:55:58;;;;;;;60.20;26.20;;;;;;;1.32;100.00;97701.06;5073669;28;20410;-73
2023/12/05 07:58:25;;;;;;;54.67;26.73;;;;;;;1.42;100.00;97670.94;5047865;28;20039;-73
2023/12/05 08:00:51;;;;;;;51.17;26.23;;;;;;;1.56;100.00;97676.75;5051575;28;20479;-72
2023/12/05 08:03:16;;;;;;;50.65;25.60;;;;;;;1.42;100.00;97681.47;5075840;28;20028;-72
2023/12/05 08:05:42;;;;;;;47.60;22.60;;;;;;;1.47;100.00;97690.16;5063290;28;20159;-74
2023/12/05 08:08:11;;;;;;;32.63;16.67;;;;;;;1.42;100.00;97696.41;5042199;28;20048;-72
2023/12/05 08:10:36;;;;;;;43.63;16.13;;;;;;;1.59;100.00;97688.97;5051806;28;20036;-73
2023/12/05 08:13:02;;;;;;;42.70;17.65;;;;;;;1.64;100.00;97695.00;5081614;28;20023;-73
2023/12/05 08:15:28;;;;;;;48.15;21.20;;;;;;;1.82;100.00;97707.72;5053570;28;20443;-74
2023/12/05 08:17:53;;;;;;;61.03;26.67;;;;;;;1.69;100.00;97716.84;5063229;28;20033;-73
2023/12/05 08:20:19;;;;;;;67.72;29.30;;;;;;;1.58;100.00;97717.09;5057807;28;20111;-72
2023/12/05 08:22:44;;;;;;;45.47;18.15;;;;;;;1.42;100.00;97723.63;5067980;28;20040;-72
2023/12/05 08:25:11;;;;;;;36.05;15.25;;;;;;;1.56;100.00;97708.38;5085577;28;20103;-73
2023/12/05 08:27:37;;;;;;;35.40;15.65;;;;;;;1.36;100.00;97717.63;5075282;28;20032;-72
2023/12/05 08:30:03;;;;;;;33.47;14.68;;;;;;;1.55;100.00;97724.22;5058458;28;20028;-73
2023/12/05 08:32:29;;;;;;;45.40;18.17;;;;;;;1.55;100.00;97722.44;5074891;28;20035;-73
2023/12/05 08:34:54;;;;;;;43.47;17.60;;;;;;;1.54;100.00;97696.09;5058077;28;20070;-73
2023/12/05 08:37:20;;;;;;;54.58;21.02;;;;;;;1.55;100.00;97685.53;5065937;28;20035;-73
2023/12/05 08:39:46;;;;;;;34.53;14.38;;;;;;;1.80;100.00;97687.56;5052622;28;20064;-73
2023/12/05 08:42:11;;;;;;;36.00;13.45;;;;;;;1.94;100.00;97702.13;5093409;28;20081;-72
2023/12/05 08:44:37;;;;;;;37.63;18.75;;;;;;;2.02;100.00;97688.75;5067270;28;20032;-72
2023/12/05 08:47:03;;;;;;;26.77;12.80;;;;;;;2.16;100.00;97694.53;5038194;28;20036;-73
2023/12/05 08:49:30;;;;;;;24.70;12.20;;;;;;;2.29;100.00;97689.78;5055066;28;20484;-73
2023/12/05 08:51:55;;;;;;;28.13;12.98;;;;;;;2.31;100.00;97685.38;5090699;28;20067;-74
2023/12/05 08:54:21;;;;;;;29.17;13.55;;;;;;;2.41;100.00;97690.31;5092813;28;20063;-73
2023/12/05 08:56:47;;;;;;;26.33;12.25;;;;;;;2.51;100.00;97681.25;5045978;28;20480;-73
2023/12/05 08:59:12;;;;;;;23.63;11.18;;;;;;;2.42;100.00;97670.09;5076397;28;20451;-72
2023/12/05 09:01:38;;;;;;;41.42;17.10;;;;;;;2.62;100.00;97673.00;5058957;28;20085;-72
2023/12/05 09:04:04;;;;;;;74.70;30.33;;;;;;;2.56;100.00;97679.34;5065126;28;20418;-74
2023/12/05 09:06:29;;;;;;;36.75;17.58;;;;;;;2.54;100.00;97665.34;5058223;28;20028;-74
2023/12/05 09:08:55;;;;;;;37.90;17.95;;;;;;;2.68;100.00;97675.47;5083042;28;20028;-73
2023/12/05 09:11:21;;;;;;;33.72;15.95;;;;;;;3.02;100.00;97670.06;5085399;28;20539;-72
2023/12/05 09:13:46;;;;;;;39.38;17.10;;;;;;;3.10;100.00;97671.59;5058094;28;20511;-72
2023/12/05 09:16:12;;;;;;;39.97;17.95;;;;;;;3.13;100.00;97660.06;5092018;28;20060;-73
2023/12/05 09:18:37;;;;;;;33.67;16.27;;;;;;;3.08;100.00;97656.66;5074283;28;20067;-72
2023/12/05 09:21:03;;;;;;;38.08;17.08;;;;;;;3.21;100.00;97666.81;5073886;28;20043;-74
2023/12/05 09:23:29;;;;;;;34.08;15.85;;;;;;;3.35;100.00;97666.41;5074199;28;20157;-73
2023/12/05 09:25:55;;;;;;;33.88;16.30;;;;;;;3.47;100.00;97658.09;5056713;28;20028;-75
2023/12/05 09:28:23;;;;;;;32.13;16.10;;;;;;;3.57;100.00;97646.28;5066164;28;20019;-74
2023/12/05 09:30:49;;;;;;;28.55;14.45;;;;;;;3.78;100.00;97645.56;5073831;28;20067;-74
2023/12/05 09:33:14;;;;;;;32.45;16.92;;;;;;;3.78;100.00;97634.97;5073459;28;20059;-73
2023/12/05 09:35:40;;;;;;;32.92;17.15;;;;;;;4.06;100.00;97628.78;5073223;28;20069;-74
2023/12/05 09:38:07;;;;;;;46.85;23.00;;;;;;;4.20;100.00;97645.00;5065345;28;20103;-73
2023/12/05 09:40:35;;;;;;;55.28;26.10;;;;;;;4.36;100.00;97627.69;5090652;28;20032;-74
2023/12/05 09:43:02;;;;;;;37.65;17.77;;;;;;;4.43;100.00;97613.28;5064690;28;20035;-73
2023/12/05 09:45:37;;;;;;;34.53;16.90;;;;;;;4.45;100.00;97606.16;5054137;28;20025;-74
2023/12/05 09:48:05;;;;;;;39.60;17.58;;;;;;;4.50;100.00;97613.91;5070485;28;20031;-73
2023/12/05 09:50:32;;;;;;;40.13;17.40;;;;;;;4.47;100.00;97600.78;5054101;28;20191;-72
2023/12/05 09:52:58;;;;;;;32.95;16.02;;;;;;;4.30;100.00;97597.00;5080094;28;20629;-73
2023/12/05 09:55:24;;;;;;;24.33;12.88;;;;;;;4.16;100.00;97601.03;5073687;28;20028;-73
2023/12/05 09:57:50;;;;;;;39.08;13.85;;;;;;;4.21;100.00;97607.06;5066491;28;20033;-74
2023/12/05 10:00:16;;;;;;;24.67;11.45;;;;;;;4.13;100.00;97609.09;5053255;28;20035;-73
2023/12/05 10:02:46;;;;;;;33.10;14.20;;;;;;;3.85;100.00;97611.84;5053510;28;20049;-73
2023/12/05 10:05:14;;;;;;;32.65;13.52;;;;;;;4.00;100.00;97618.41;5059814;28;20036;-73
2023/12/05 10:07:41;;;;;;;45.60;14.30;;;;;;;4.21;100.00;97602.63;5060997;28;20020;-72
2023/12/05 10:10:08;;;;;;;32.92;15.00;;;;;;;4.04;100.00;97588.25;5053783;28;20036;-73
2023/12/05 10:12:34;;;;;;;35.85;17.33;;;;;;;3.96;100.00;97596.47;5065071;28;20068;-73
2023/12/05 10:15:00;;;;;;;223.60;105.88;;;;;;;4.00;100.00;97591.94;5083111;28;20502;-73
2023/12/05 10:17:26;;;;;;;93.78;42.35;;;;;;;4.08;100.00;97601.31;5061248;28;20056;-73
2023/12/05 10:19:52;;;;;;;31.55;13.68;;;;;;;3.96;100.00;97596.47;5069835;28;20060;-73
2023/12/05 10:22:17;;;;;;;33.53;12.63;;;;;;;3.91;100.00;97586.97;5072409;28;20028;-73
2023/12/05 10:24:43;;;;;;;30.95;13.50;;;;;;;3.65;100.00;97593.16;5042779;28;20086;-73
2023/12/05 10:27:09;;;;;;;35.35;13.57;;;;;;;3.72;100.00;97582.28;5037172;28;20031;-73
2023/12/05 10:29:42;;;;;;;27.90;12.02;;;;;;;3.74;100.00;97579.59;5069043;28;20028;-74
2023/12/05 10:32:09;;;;;;;21.73;11.90;;;;;;;3.85;100.00;97603.91;5027835;28;20142;-73
2023/12/05 10:34:52;;;;;;;22.58;11.45;;;;;;;3.73;100.00;97589.31;5065465;28;20038;-73
2023/12/05 10:37:25;;;;;;;23.08;11.07;;;;;;;3.61;100.00;97588.88;5046109;28;20032;-73
2023/12/05 10:39:55;;;;;;;25.80;10.63;;;;;;;3.78;100.00;97591.81;5044485;28;20044;-73
2023/12/05 10:42:25;;;;;;;24.70;10.60;;;;;;;3.78;100.00;97592.66;5052548;28;20032;-72
2023/12/05 10:44:50;;;;;;;23.52;10.73;;;;;;;3.83;100.00;97580.16;5058608;28;20112;-73
2023/12/05 10:47:16;;;;;;;29.60;11.57;;;;;;;4.03;100.00;97586.53;5089912;28;20024;-74
2023/12/05 10:49:42;;;;;;;18.20;9.38;;;;;;;4.00;100.00;97590.13;5064228;28;20024;-74
2023/12/05 10:52:09;;;;;;;21.10;8.55;;;;;;;4.01;100.00;97589.22;5036316;28;20040;-74
2023/12/05 10:54:35;;;;;;;21.58;9.88;;;;;;;4.02;100.00;97574.22;5064119;28;20032;-74
2023/12/05 10:57:00;;;;;;;38.90;15.98;;;;;;;4.26;100.00;97583.91;5072742;28;20034;-73
2023/12/05 10:59:28;;;;;;;20.40;10.23;;;;;;;4.34;100.00;97588.00;5072502;28;20042;-73
2023/12/05 11:01:58;;;;;;;39.10;13.18;;;;;;;4.48;100.00;97587.50;5072554;28;20066;-73
2023/12/05 11:04:27;;;;;;;32.03;12.95;;;;;;;4.46;100.00;97570.78;5072753;28;20032;-73
2023/12/05 11:06:53;;;;;;;34.90;12.75;;;;;;;4.79;100.00;97576.63;5090590;28;20043;-72
2023/12/05 11:09:19;;;;;;;34.10;12.52;;;;;;;4.68;100.00;97576.13;5071323;28;20027;-72
2023/12/05 11:11:46;;;;;;;23.23;11.70;;;;;;;4.68;100.00;97570.84;5052200;28;20031;-73
2023/12/05 11:14:15;;;;;;;28.55;13.52;;;;;;;4.55;100.00;97575.78;5035644;28;20032;-73